Аэропорт: Кривой Рог. Кривой Рог

ICAO: UKDR

METAR:
2021-10-23 00:30:00
UKDR 230030Z 21003MPS CAVOK 11/08 Q1014 R18/09//70 NOSIG
METAR:
2021-10-22 23:10:00
TAF UKDR 222310Z 2300/2324 23005MPS 3100 BR BKN007 FM230100 30006MPS 3100 BR BKN007 TEMPO 2301/2306 1000 BR OVC003 TEMPO 2306/2313 2100 -RA BR OVC005 BECMG 2313/2315 9999 NSW BKN015